Cenes de la Vega, Spain
Current Conditions -  °F | °C
As of 9:30 AM on Sunday 26 Oct 2014 (Local Time) from LEGR Reporting Station
Few Clouds Few Clouds  
Wind Chill: 48°   Ceiling: Unl
Heat Index: 48°   Visibility: 6mi
Dew Point: 45°   Wind: 0mph
Humidity: 87%   Direction: NA
Pressure: 30.18"   Gusts: NA
Location:  37.16°N, 3.54°W
Report Text: LEGR 260730Z 00000KT 9999 FEW100 09/07 Q1022
Loading
Personal Weather Stations






























Interactive Weather Map
Tropical Storm Tracking
New forecast layout! Learn more

10-Day Weather Forecast

Advertisements
Track Severe Weather on mobile